Time;durP1;ratioP1;P1;durP2;ratioP2;P2;SDS_P1;SDS_P2;PMS_P1;PMS_P2;Temp;Humidity;BMP_temperature;BMP_pressure;BME280_temperature;BME280_humidity;BME280_pressure;Samples;Min_cycle;Max_cycle;Signal;HPM_P1;HPM_P2
2023/02/06 00:01:18;;;;;;;10.33;3.10;;;2.30;99.90;;;;;;5022086;28;20911;-78
2023/02/06 00:03:45;;;;;;;18.03;3.40;;;2.30;99.90;;;;;;5029129;28;20469;-77
2023/02/06 00:06:13;;;;;;;16.77;3.70;;;2.30;99.90;;;;;;5033476;28;20463;-78
2023/02/06 00:08:40;;;;;;;15.07;3.37;;;2.30;99.90;;;;;;5026493;28;20493;-79
2023/02/06 00:11:09;;;;;;;23.30;3.40;;;2.30;99.90;;;;;;5024472;28;20473;-78
2023/02/06 00:13:37;;;;;;;7.10;3.20;;;2.20;99.90;;;;;;5027140;28;20464;-77
2023/02/06 00:16:04;;;;;;;15.57;3.80;;;2.20;99.90;;;;;;5023437;28;20871;-79
2023/02/06 00:18:31;;;;;;;18.07;4.00;;;2.10;99.90;;;;;;5032590;28;20541;-78
2023/02/06 00:20:58;;;;;;;12.80;4.37;;;2.10;99.90;;;;;;5033846;28;20465;-78
2023/02/06 00:23:26;;;;;;;9.63;4.60;;;2.00;99.90;;;;;;5028272;28;20449;-79
2023/02/06 00:25:53;;;;;;;9.70;3.40;;;1.90;99.90;;;;;;5020783;28;20473;-78
2023/02/06 00:28:20;;;;;;;7.40;3.20;;;2.00;99.90;;;;;;5028672;28;20493;-79
2023/02/06 00:30:47;;;;;;;8.20;2.73;;;1.90;99.90;;;;;;5019351;28;20480;-78
2023/02/06 00:33:14;;;;;;;12.97;3.70;;;1.90;99.90;;;;;;5027793;28;20863;-79
2023/02/06 00:35:41;;;;;;;9.03;3.57;;;1.90;99.90;;;;;;5021891;28;20471;-80
2023/02/06 00:38:09;;;;;;;8.83;3.53;;;1.90;99.90;;;;;;5030869;28;20465;-78
2023/02/06 00:40:38;;;;;;;14.03;3.23;;;1.80;99.90;;;;;;5019808;28;20450;-79
2023/02/06 00:43:05;;;;;;;11.70;3.78;;;1.80;99.90;;;;;;5030439;28;20536;-79
2023/02/06 00:45:32;;;;;;;9.20;3.40;;;1.70;99.90;;;;;;5020630;28;20210;-79
2023/02/06 00:47:59;;;;;;;14.70;4.30;;;1.70;99.90;;;;;;5026362;28;20496;-79
2023/02/06 00:50:25;;;;;;;15.10;3.50;;;1.70;99.90;;;;;;5033830;28;20474;-77
2023/02/06 00:52:52;;;;;;;11.68;3.55;;;1.70;99.90;;;;;;5032515;28;20449;-79
2023/02/06 00:55:19;;;;;;;13.50;3.13;;;1.70;99.90;;;;;;5018319;28;20211;-79
2023/02/06 00:57:47;;;;;;;13.03;3.17;;;1.70;99.90;;;;;;5032788;28;20453;-79
2023/02/06 01:00:15;;;;;;;10.10;3.43;;;1.60;99.90;;;;;;5019061;28;20479;-79
2023/02/06 01:02:42;;;;;;;13.77;3.13;;;1.60;99.90;;;;;;5032711;28;20426;-78
2023/02/06 01:05:09;;;;;;;11.10;4.00;;;1.60;99.90;;;;;;5014089;28;20428;-78
2023/02/06 01:07:38;;;;;;;10.83;3.57;;;1.50;99.90;;;;;;5032100;28;20477;-79
2023/02/06 01:10:06;;;;;;;8.30;3.57;;;1.50;99.90;;;;;;5012714;28;20457;-79
2023/02/06 01:12:33;;;;;;;10.00;2.78;;;1.50;99.90;;;;;;5042354;28;20440;-79
2023/02/06 01:15:02;;;;;;;7.57;3.53;;;1.50;99.90;;;;;;5016853;28;20210;-77
2023/02/06 01:17:29;;;;;;;11.07;3.53;;;1.40;99.90;;;;;;5031383;28;20470;-78
2023/02/06 01:19:56;;;;;;;11.50;3.73;;;1.50;99.90;;;;;;5012658;28;20445;-78
2023/02/06 01:22:22;;;;;;;10.90;3.43;;;1.40;99.90;;;;;;5031060;28;20435;-78
2023/02/06 01:24:49;;;;;;;7.43;3.13;;;1.40;99.90;;;;;;5015643;28;20469;-78
2023/02/06 01:27:16;;;;;;;8.67;2.40;;;1.40;99.90;;;;;;5030147;28;20237;-79
2023/02/06 01:29:43;;;;;;;7.90;3.22;;;1.30;99.90;;;;;;5014799;28;20820;-77
2023/02/06 01:32:11;;;;;;;11.00;4.75;;;1.40;99.90;;;;;;5032521;28;20205;-78
2023/02/06 01:34:38;;;;;;;10.03;2.83;;;1.30;99.90;;;;;;5015759;28;20209;-78
2023/02/06 01:37:05;;;;;;;13.00;3.70;;;1.30;99.90;;;;;;5031720;28;20470;-78
2023/02/06 01:39:32;;;;;;;10.80;4.03;;;1.30;99.90;;;;;;5015525;28;20452;-77
2023/02/06 01:41:58;;;;;;;8.57;3.20;;;1.30;99.90;;;;;;5026359;28;21008;-77
2023/02/06 01:44:25;;;;;;;13.60;3.57;;;1.30;99.90;;;;;;5031751;28;20448;-78
2023/02/06 01:46:54;;;;;;;9.73;2.75;;;1.20;99.90;;;;;;5034903;28;20488;-79
2023/02/06 01:49:28;;;;;;;13.40;4.23;;;1.30;99.90;;;;;;5025698;28;20474;-77
2023/02/06 01:51:58;;;;;;;16.43;4.27;;;1.30;99.90;;;;;;5039778;28;20479;-78
2023/02/06 01:54:25;;;;;;;11.73;3.40;;;1.30;99.90;;;;;;5021903;28;20456;-78
2023/02/06 01:56:56;;;;;;;13.00;2.80;;;1.30;99.90;;;;;;5025512;28;20225;-78
2023/02/06 01:59:24;;;;;;;10.30;3.43;;;1.20;99.90;;;;;;5032034;28;20212;-77
2023/02/06 02:01:51;;;;;;;15.82;3.80;;;1.20;99.90;;;;;;5022409;28;20471;-77
2023/02/06 02:04:19;;;;;;;11.43;3.20;;;1.20;99.90;;;;;;5026239;28;20468;-78
2023/02/06 02:06:52;;;;;;;9.77;3.20;;;1.10;99.90;;;;;;5030123;28;20489;-77
2023/02/06 02:09:20;;;;;;;11.50;3.97;;;1.10;99.90;;;;;;5018241;28;20467;-77
2023/02/06 02:11:47;;;;;;;9.43;2.92;;;1.00;99.90;;;;;;5029438;28;20468;-77
2023/02/06 02:14:16;;;;;;;7.73;3.03;;;1.00;99.90;;;;;;5019763;28;20211;-78
2023/02/06 02:16:52;;;;;;;7.57;3.08;;;1.10;99.90;;;;;;5030551;28;20487;-77
2023/02/06 02:19:51;;;;;;;7.43;3.60;;;1.00;99.90;;;;;;5026685;28;20695;-77
2023/02/06 02:22:50;;;;;;;10.98;3.50;;;1.00;99.90;;;;;;4991808;28;20846;-79
2023/02/06 02:25:50;;;;;;;8.83;2.80;;;0.90;99.90;;;;;;4987498;28;20212;-77
2023/02/06 02:28:41;;;;;;;12.85;3.80;;;0.90;99.90;;;;;;5017605;28;20499;-79
2023/02/06 02:31:28;;;;;;;13.43;3.55;;;0.90;99.90;;;;;;5026556;28;20217;-76
2023/02/06 02:34:45;;;;;;;10.73;3.47;;;0.90;99.90;;;;;;5036121;28;20219;-77
2023/02/06 02:37:22;;;;;;;9.45;3.60;;;0.90;99.90;;;;;;5028868;28;20476;-77
2023/02/06 02:39:59;;;;;;;12.33;2.87;;;0.90;99.90;;;;;;5034757;28;20210;-80
2023/02/06 02:42:32;;;;;;;13.13;4.45;;;0.90;99.90;;;;;;5029259;28;20806;-79
2023/02/06 02:45:06;;;;;;;12.63;4.20;;;0.90;99.90;;;;;;5022372;28;20289;-79
2023/02/06 02:47:42;;;;;;;15.63;3.30;;;0.90;99.90;;;;;;5027928;28;20454;-78
2023/02/06 02:50:12;;;;;;;17.15;4.30;;;0.90;99.90;;;;;;5034186;28;20232;-78
2023/02/06 02:52:38;;;;;;;18.55;4.75;;;0.90;99.90;;;;;;5019093;28;20203;-79
2023/02/06 02:55:15;;;;;;;9.30;3.30;;;0.80;99.90;;;;;;5034743;28;20207;-79
2023/02/06 02:57:46;;;;;;;11.95;3.50;;;0.80;99.90;;;;;;5026330;28;20229;-78
2023/02/06 03:00:15;;;;;;;11.23;3.75;;;0.80;99.90;;;;;;5021957;28;20210;-79
2023/02/06 03:02:42;;;;;;;10.07;3.80;;;0.70;99.90;;;;;;5026099;28;20199;-78
2023/02/06 03:05:14;;;;;;;11.30;3.47;;;0.70;99.90;;;;;;5019820;28;20448;-77
2023/02/06 03:07:52;;;;;;;13.95;4.28;;;0.80;99.90;;;;;;5032526;28;20236;-78
2023/02/06 03:10:27;;;;;;;12.27;4.07;;;0.80;99.90;;;;;;5023340;28;20273;-78
2023/02/06 03:13:03;;;;;;;14.13;4.03;;;0.70;99.90;;;;;;5014767;28;20210;-79
2023/02/06 03:15:35;;;;;;;15.45;4.20;;;0.80;99.90;;;;;;5022632;28;20207;-78
2023/02/06 03:18:08;;;;;;;14.10;3.65;;;0.70;99.90;;;;;;5029390;28;20226;-78
2023/02/06 03:20:40;;;;;;;8.60;3.40;;;0.80;99.90;;;;;;5025887;28;20206;-79
2023/02/06 03:23:08;;;;;;;8.68;3.35;;;0.70;99.90;;;;;;5031329;28;20213;-78
2023/02/06 03:25:39;;;;;;;8.87;3.47;;;0.80;99.90;;;;;;5034254;28;20206;-79
2023/02/06 03:28:11;;;;;;;10.63;3.50;;;0.80;99.90;;;;;;5036673;28;20506;-79
2023/02/06 03:30:42;;;;;;;13.32;3.65;;;0.80;99.90;;;;;;5023773;28;20236;-77
2023/02/06 03:33:13;;;;;;;12.17;3.90;;;0.80;99.90;;;;;;5033222;28;20262;-78
2023/02/06 03:35:42;;;;;;;12.70;4.07;;;0.80;99.90;;;;;;5025274;28;20545;-77
2023/02/06 03:38:10;;;;;;;17.90;3.72;;;0.80;99.90;;;;;;5029954;28;20242;-78
2023/02/06 03:40:39;;;;;;;12.85;3.88;;;0.70;99.90;;;;;;5016521;28;20212;-77
2023/02/06 03:43:07;;;;;;;7.03;3.22;;;0.70;99.90;;;;;;5028900;28;20227;-78
2023/02/06 03:45:39;;;;;;;9.32;3.78;;;0.70;99.90;;;;;;5022786;28;20209;-78
2023/02/06 03:48:09;;;;;;;14.07;5.47;;;0.70;99.90;;;;;;5027931;28;20227;-78
2023/02/06 03:50:40;;;;;;;17.88;3.92;;;0.60;99.90;;;;;;5029515;28;20598;-78
2023/02/06 03:53:10;;;;;;;14.97;3.50;;;0.70;99.90;;;;;;5032488;28;20365;-78
2023/02/06 03:55:38;;;;;;;11.90;3.60;;;0.60;99.90;;;;;;5022652;28;20458;-78
2023/02/06 03:58:09;;;;;;;13.45;4.05;;;0.70;99.90;;;;;;5031665;28;20244;-78
2023/02/06 04:00:38;;;;;;;9.15;4.45;;;0.70;99.90;;;;;;5028487;28;20194;-78
2023/02/06 04:03:06;;;;;;;12.30;4.35;;;0.70;99.90;;;;;;5019275;28;20202;-78
2023/02/06 04:05:32;;;;;;;13.73;5.88;;;0.70;99.90;;;;;;5027275;28;20205;-79
2023/02/06 04:07:59;;;;;;;14.07;3.80;;;0.80;99.90;;;;;;5029854;28;20723;-77
2023/02/06 04:10:27;;;;;;;13.57;4.18;;;0.70;99.90;;;;;;5025729;28;20492;-78
2023/02/06 04:12:54;;;;;;;20.27;4.93;;;0.70;99.90;;;;;;5027908;28;20306;-77
2023/02/06 04:15:21;;;;;;;14.48;5.00;;;0.70;99.90;;;;;;5025393;28;20217;-77
2023/02/06 04:17:50;;;;;;;14.98;4.50;;;0.60;99.90;;;;;;5027620;28;20235;-79
2023/02/06 04:20:17;;;;;;;24.23;5.60;;;0.60;99.90;;;;;;5028081;28;20233;-77
2023/02/06 04:22:44;;;;;;;15.10;4.97;;;0.60;99.90;;;;;;5016050;28;20290;-79
2023/02/06 04:25:10;;;;;;;15.52;4.72;;;0.70;99.90;;;;;;5025042;28;20202;-79
2023/02/06 04:27:39;;;;;;;18.48;6.85;;;0.70;99.90;;;;;;5033357;28;20243;-78
2023/02/06 04:30:07;;;;;;;9.27;4.30;;;0.70;99.90;;;;;;5029925;28;20227;-81
2023/02/06 04:32:33;;;;;;;15.32;4.00;;;0.70;99.90;;;;;;5030004;28;20201;-80
2023/02/06 04:35:00;;;;;;;16.63;4.30;;;0.70;99.90;;;;;;5034080;28;20205;-81
2023/02/06 04:37:27;;;;;;;14.82;5.00;;;0.70;99.90;;;;;;5033582;28;20232;-80
2023/02/06 04:39:56;;;;;;;20.10;4.32;;;0.70;99.90;;;;;;5023158;28;20261;-79
2023/02/06 04:42:23;;;;;;;14.38;3.88;;;0.70;99.90;;;;;;5027792;28;20656;-79
2023/02/06 04:44:51;;;;;;;14.68;3.97;;;0.60;99.90;;;;;;5026464;28;20218;-80
2023/02/06 04:47:18;;;;;;;18.73;4.20;;;0.70;99.90;;;;;;5018936;28;20246;-79
2023/02/06 04:49:44;;;;;;;14.27;5.30;;;0.60;99.90;;;;;;5016280;28;20489;-79
2023/02/06 04:52:11;;;;;;;9.23;4.15;;;0.60;99.90;;;;;;5021603;28;20668;-78
2023/02/06 04:54:38;;;;;;;24.55;6.47;;;0.60;99.90;;;;;;5035706;28;20202;-78
2023/02/06 04:57:05;;;;;;;13.15;5.40;;;0.60;99.90;;;;;;5035834;28;20308;-78
2023/02/06 04:59:32;;;;;;;9.75;3.95;;;0.60;99.90;;;;;;5027988;28;20291;-79
2023/02/06 05:02:00;;;;;;;16.30;4.57;;;0.60;99.90;;;;;;5033522;28;20211;-80
2023/02/06 05:04:27;;;;;;;11.07;4.57;;;0.60;99.90;;;;;;5035810;28;20635;-79
2023/02/06 05:06:54;;;;;;;9.18;4.25;;;0.60;99.90;;;;;;5034226;28;20232;-79
2023/02/06 05:09:21;;;;;;;10.90;4.70;;;0.60;99.90;;;;;;5032503;28;20673;-78
2023/02/06 05:11:47;;;;;;;11.00;3.92;;;0.60;99.90;;;;;;5024621;28;20677;-80
2023/02/06 05:14:14;;;;;;;11.13;4.32;;;0.60;99.90;;;;;;5017503;28;20214;-80
2023/02/06 05:16:41;;;;;;;13.88;5.15;;;0.60;99.90;;;;;;5024261;28;20235;-79
2023/02/06 05:19:09;;;;;;;20.58;4.60;;;0.70;99.90;;;;;;5015402;28;20745;-80
2023/02/06 05:21:36;;;;;;;14.70;4.35;;;0.80;99.90;;;;;;5031159;28;20713;-81
2023/02/06 05:24:03;;;;;;;11.30;5.13;;;0.80;99.90;;;;;;5025286;28;20213;-79
2023/02/06 05:26:30;;;;;;;14.48;4.55;;;0.80;99.90;;;;;;5030913;28;20230;-79
2023/02/06 05:28:57;;;;;;;20.17;4.97;;;0.80;99.90;;;;;;5070907;23;20246;-79
2023/02/06 05:31:23;;;;;;;17.08;4.45;;;0.80;99.90;;;;;;5041156;28;20210;-81
2023/02/06 05:33:51;;;;;;;11.27;4.00;;;0.80;99.90;;;;;;5035382;28;20240;-80
2023/02/06 05:36:20;;;;;;;12.70;4.00;;;0.90;99.90;;;;;;5044212;28;20205;-81
2023/02/06 05:38:47;;;;;;;11.90;4.10;;;0.90;99.90;;;;;;5028666;28;20491;-80
2023/02/06 05:41:15;;;;;;;9.27;3.97;;;1.00;99.90;;;;;;5011238;28;20198;-80
2023/02/06 05:43:42;;;;;;;12.55;5.43;;;1.10;99.90;;;;;;5031937;28;20270;-79
2023/02/06 05:46:10;;;;;;;20.77;8.00;;;1.20;99.90;;;;;;5036700;28;20214;-81
2023/02/06 05:48:37;;;;;;;27.92;9.45;;;1.30;99.90;;;;;;5032796;28;20228;-82
2023/02/06 05:51:04;;;;;;;24.40;7.50;;;1.40;99.90;;;;;;5032016;28;20290;-82
2023/02/06 05:53:32;;;;;;;24.92;7.22;;;1.40;99.90;;;;;;5035175;28;20478;-81
2023/02/06 05:55:59;;;;;;;18.40;7.90;;;1.50;99.90;;;;;;5027675;28;20208;-81
2023/02/06 05:58:26;;;;;;;21.67;8.48;;;1.60;99.90;;;;;;5036350;28;20473;-81
2023/02/06 06:00:53;;;;;;;31.77;9.45;;;1.70;99.90;;;;;;5033283;28;20208;-81
2023/02/06 06:03:20;;;;;;;40.47;12.65;;;1.80;99.90;;;;;;5042231;28;20661;-82
2023/02/06 06:05:47;;;;;;;38.78;15.07;;;1.80;99.90;;;;;;5039035;28;20309;-81
2023/02/06 06:08:14;;;;;;;29.73;12.60;;;1.90;99.90;;;;;;5037938;28;20313;-82
2023/02/06 06:10:42;;;;;;;30.53;13.10;;;1.90;99.90;;;;;;5038313;28;20463;-80
2023/02/06 06:13:09;;;;;;;28.20;12.00;;;2.00;99.90;;;;;;5038408;28;20452;-83
2023/02/06 06:15:36;;;;;;;30.13;11.67;;;2.00;99.90;;;;;;5039351;28;20531;-81
2023/02/06 06:18:03;;;;;;;33.03;12.70;;;2.10;99.90;;;;;;5036149;28;20481;-80
2023/02/06 06:20:30;;;;;;;23.90;11.93;;;2.20;99.90;;;;;;5030729;28;20201;-80
2023/02/06 06:22:56;;;;;;;29.97;11.20;;;2.20;99.90;;;;;;5036888;28;21010;-82
2023/02/06 06:25:23;;;;;;;28.23;12.30;;;2.30;99.90;;;;;;5037087;28;20518;-82
2023/02/06 06:27:51;;;;;;;26.60;11.70;;;2.30;99.90;;;;;;5036603;28;20488;-82
2023/02/06 06:30:18;;;;;;;25.03;11.40;;;2.30;99.90;;;;;;5036171;28;20484;-81
2023/02/06 06:32:45;;;;;;;30.20;11.30;;;2.30;99.90;;;;;;5036056;28;20463;-81
2023/02/06 06:35:13;;;;;;;32.07;11.60;;;2.30;99.90;;;;;;5034969;28;20855;-82
2023/02/06 06:37:40;;;;;;;22.63;9.70;;;2.30;99.90;;;;;;5027974;28;20557;-82
2023/02/06 06:40:08;;;;;;;29.00;12.00;;;2.40;99.90;;;;;;5035124;28;20471;-80
2023/02/06 06:42:35;;;;;;;27.20;13.03;;;2.40;99.90;;;;;;5028008;28;21144;-80
2023/02/06 06:45:03;;;;;;;20.67;11.80;;;2.40;99.90;;;;;;5032786;28;20465;-81
2023/02/06 06:47:30;;;;;;;30.50;13.97;;;2.40;99.90;;;;;;5029618;28;20903;-80
2023/02/06 06:49:57;;;;;;;33.80;12.80;;;2.30;99.90;;;;;;5029315;28;20485;-81
2023/02/06 06:52:24;;;;;;;34.67;14.00;;;2.40;99.90;;;;;;5033405;28;20594;-81
2023/02/06 06:54:50;;;;;;;40.77;15.00;;;2.40;99.90;;;;;;5040187;28;20521;-80
2023/02/06 06:57:17;;;;;;;91.70;23.23;;;2.40;99.90;;;;;;5034694;28;20540;-80
2023/02/06 06:59:44;;;;;;;40.40;14.73;;;2.40;99.90;;;;;;5029047;28;20548;-81
2023/02/06 07:02:12;;;;;;;32.23;13.37;;;2.40;99.90;;;;;;5037148;28;20472;-81
2023/02/06 07:04:39;;;;;;;37.37;15.43;;;2.50;99.90;;;;;;5036536;28;20499;-80
2023/02/06 07:07:06;;;;;;;39.90;15.47;;;2.50;99.90;;;;;;5035497;28;20461;-79
2023/02/06 07:09:33;;;;;;;40.97;16.35;;;2.60;99.90;;;;;;5034962;28;21191;-79
2023/02/06 07:12:00;;;;;;;45.20;14.93;;;2.70;99.90;;;;;;5033862;28;20203;-80
2023/02/06 07:14:27;;;;;;;31.73;13.27;;;2.70;99.90;;;;;;5024655;28;20548;-81
2023/02/06 07:16:55;;;;;;;35.30;15.10;;;2.80;99.90;;;;;;5031982;28;20909;-80
2023/02/06 07:19:23;;;;;;;29.93;14.03;;;2.80;99.90;;;;;;5023122;28;20519;-80
2023/02/06 07:21:50;;;;;;;29.37;13.53;;;2.70;99.90;;;;;;5033923;28;20560;-80
2023/02/06 07:24:17;;;;;;;29.70;13.93;;;2.80;99.90;;;;;;5025299;28;20453;-79
2023/02/06 07:26:44;;;;;;;34.30;12.60;;;2.80;99.90;;;;;;5032791;28;20892;-79
2023/02/06 07:29:11;;;;;;;40.07;12.93;;;2.90;99.90;;;;;;5035145;28;20495;-79
2023/02/06 07:31:38;;;;;;;30.70;12.47;;;2.90;99.90;;;;;;5026929;28;20495;-80
2023/02/06 07:34:05;;;;;;;26.47;12.33;;;2.90;99.90;;;;;;5029025;28;20475;-77
2023/02/06 07:36:33;;;;;;;34.20;13.30;;;3.00;99.90;;;;;;5036770;28;20555;-80
2023/02/06 07:39:02;;;;;;;37.07;12.17;;;2.80;99.90;;;;;;5027353;28;20535;-81
2023/02/06 07:41:28;;;;;;;26.63;11.27;;;2.90;99.90;;;;;;5026972;28;20436;-80
2023/02/06 07:43:55;;;;;;;19.80;10.70;;;3.00;99.90;;;;;;5035282;28;20672;-80
2023/02/06 07:46:22;;;;;;;24.70;11.23;;;3.00;99.90;;;;;;5034282;28;20467;-80
2023/02/06 07:48:49;;;;;;;24.80;10.30;;;3.10;99.90;;;;;;5035293;28;20480;-79
2023/02/06 07:51:16;;;;;;;25.13;10.50;;;3.10;99.90;;;;;;5033361;28;20495;-80
2023/02/06 07:53:44;;;;;;;26.80;11.03;;;3.20;99.90;;;;;;5029836;28;20469;-80
2023/02/06 07:56:12;;;;;;;27.13;12.50;;;3.30;99.90;;;;;;5030333;28;20565;-81
2023/02/06 07:58:39;;;;;;;28.83;10.07;;;3.40;99.90;;;;;;5024904;28;20490;-81
2023/02/06 08:01:07;;;;;;;24.13;11.13;;;3.40;99.90;;;;;;5026426;28;20535;-79
2023/02/06 08:03:34;;;;;;;29.47;14.23;;;3.50;99.90;;;;;;5030261;28;20420;-81
2023/02/06 08:06:01;;;;;;;34.57;14.30;;;3.60;99.90;;;;;;5028636;28;20536;-80
2023/02/06 08:08:28;;;;;;;32.20;13.13;;;3.60;99.90;;;;;;5032816;28;20839;-80
2023/02/06 08:10:56;;;;;;;31.50;13.50;;;3.60;99.90;;;;;;5030053;28;20537;-79
2023/02/06 08:13:23;;;;;;;34.67;13.73;;;3.50;99.90;;;;;;5031547;28;20459;-81
2023/02/06 08:15:49;;;;;;;36.13;13.40;;;3.40;99.90;;;;;;5031065;28;20453;-81
2023/02/06 08:18:16;;;;;;;46.30;14.37;;;3.30;99.90;;;;;;5023681;28;20556;-80
2023/02/06 08:20:43;;;;;;;31.07;13.20;;;3.40;99.90;;;;;;5035271;28;20424;-80
2023/02/06 08:23:10;;;;;;;29.73;12.77;;;3.40;99.90;;;;;;5025994;28;20468;-80
2023/02/06 08:25:37;;;;;;;31.23;13.47;;;3.40;99.90;;;;;;5032161;28;20540;-80
2023/02/06 08:28:05;;;;;;;25.30;11.77;;;3.40;99.90;;;;;;5026979;28;20574;-80
2023/02/06 08:30:33;;;;;;;32.90;13.70;;;3.40;99.90;;;;;;5034400;28;20481;-80
2023/02/06 08:33:00;;;;;;;43.97;12.90;;;3.50;99.90;;;;;;5017287;28;20450;-81
2023/02/06 08:35:26;;;;;;;30.10;15.07;;;3.50;99.90;;;;;;5016442;28;20476;-81
2023/02/06 08:37:53;;;;;;;31.43;12.83;;;3.40;99.90;;;;;;5033384;28;20499;-80
2023/02/06 08:40:20;;;;;;;23.10;12.53;;;3.40;99.90;;;;;;5037495;28;20465;-80
2023/02/06 08:42:50;;;;;;;33.13;13.37;;;3.50;99.90;;;;;;5034068;28;20464;-81
2023/02/06 08:45:20;;;;;;;27.97;12.27;;;3.70;99.90;;;;;;5032960;28;20511;-81
2023/02/06 08:47:47;;;;;;;32.50;12.40;;;3.80;99.90;;;;;;5048388;28;20514;-80
2023/02/06 08:50:13;;;;;;;25.50;11.97;;;4.00;99.90;;;;;;5052849;28;20448;-80
2023/02/06 08:52:40;;;;;;;37.53;15.70;;;4.10;99.90;;;;;;5050675;28;21008;-81
2023/02/06 08:55:08;;;;;;;36.47;14.60;;;4.00;99.90;;;;;;5052914;28;20439;-80
2023/02/06 08:57:35;;;;;;;30.83;13.70;;;3.90;99.90;;;;;;5046669;28;20461;-80
2023/02/06 09:00:02;;;;;;;41.53;14.10;;;3.90;99.90;;;;;;5038038;28;20457;-81
2023/02/06 09:02:30;;;;;;;22.40;11.43;;;4.10;99.90;;;;;;5039562;28;20900;-82
2023/02/06 09:04:57;;;;;;;19.40;9.20;;;4.30;99.90;;;;;;5040743;28;20548;-81
2023/02/06 09:07:24;;;;;;;21.50;9.70;;;4.10;99.90;;;;;;5035357;28;20603;-81
2023/02/06 09:09:50;;;;;;;19.50;8.57;;;4.20;99.90;;;;;;5034593;28;20462;-80
2023/02/06 09:12:17;;;;;;;18.23;8.70;;;4.30;99.90;;;;;;5030664;28;20490;-80
2023/02/06 09:14:44;;;;;;;22.23;8.00;;;4.40;99.90;;;;;;5020390;28;20647;-80
2023/02/06 09:17:11;;;;;;;15.73;8.53;;;4.40;99.90;;;;;;5032250;28;20441;-81
2023/02/06 09:19:39;;;;;;;22.07;9.43;;;4.50;99.90;;;;;;5032388;28;20534;-80
2023/02/06 09:22:06;;;;;;;17.97;8.17;;;4.30;99.90;;;;;;5033427;28;20455;-80
2023/02/06 09:24:33;;;;;;;14.47;7.60;;;4.40;99.90;;;;;;5043346;28;20517;-81
2023/02/06 09:27:00;;;;;;;13.80;7.53;;;4.50;99.90;;;;;;5042653;28;20472;-80
2023/02/06 09:29:30;;;;;;;15.33;7.70;;;4.50;99.90;;;;;;5035158;28;20593;-81
2023/02/06 09:31:57;;;;;;;17.63;7.93;;;4.50;99.90;;;;;;5038537;28;20498;-81
2023/02/06 09:34:24;;;;;;;12.67;6.80;;;4.60;99.90;;;;;;5026313;28;20506;-81
2023/02/06 09:36:53;;;;;;;17.63;7.17;;;4.60;99.90;;;;;;5035563;28;20536;-80
2023/02/06 09:39:20;;;;;;;15.00;8.77;;;4.70;99.90;;;;;;5032920;28;20501;-81
2023/02/06 09:41:50;;;;;;;15.70;7.87;;;4.60;99.90;;;;;;5035773;28;20442;-83
2023/02/06 09:44:20;;;;;;;12.20;5.83;;;4.70;99.90;;;;;;5027977;28;20847;-80
2023/02/06 09:46:51;;;;;;;15.33;6.77;;;4.70;99.90;;;;;;5038112;28;21110;-85
2023/02/06 09:49:22;;;;;;;18.10;8.00;;;5.00;99.90;;;;;;5039185;28;20961;-81
2023/02/06 09:52:27;;;;;;;18.77;6.70;;;5.20;99.90;;;;;;5032742;28;20487;-82
2023/02/06 09:55:03;;;;;;;15.50;6.30;;;5.30;99.90;;;;;;5032101;28;20553;-80
2023/02/06 09:57:40;;;;;;;15.20;7.00;;;5.40;99.90;;;;;;5033526;28;20529;-81
2023/02/06 10:00:17;;;;;;;16.20;7.40;;;5.50;99.90;;;;;;5033102;28;20545;-82
2023/02/06 10:02:59;;;;;;;14.30;6.40;;;5.60;99.90;;;;;;5027300;28;20441;-81
2023/02/06 10:05:37;;;;;;;13.47;6.03;;;5.80;99.90;;;;;;5026809;28;20464;-81
2023/02/06 10:08:15;;;;;;;14.20;6.73;;;5.90;99.00;;;;;;5030793;28;20493;-81
2023/02/06 10:10:47;;;;;;;14.90;7.00;;;5.90;27.30;;;;;;5028148;28;20455;-79
2023/02/06 10:13:20;;;;;;;12.33;5.40;;;5.90;43.90;;;;;;5030789;28;20482;-82
2023/02/06 10:15:50;;;;;;;18.00;7.93;;;6.10;38.40;;;;;;5027051;28;20487;-81
2023/02/06 10:18:24;;;;;;;15.50;5.70;;;6.20;24.60;;;;;;5028595;28;20505;-82
2023/02/06 10:20:55;;;;;;;18.23;6.90;;;6.20;21.40;;;;;;5032857;28;20827;-82
2023/02/06 10:23:29;;;;;;;14.10;7.23;;;6.40;6.30;;;;;;5029089;28;20476;-80
2023/02/06 10:26:04;;;;;;;14.07;6.40;;;6.70;1.00;;;;;;5036836;28;20455;-82
2023/02/06 10:28:34;;;;;;;19.47;7.20;;;6.80;1.00;;;;;;5029348;28;20499;-81
2023/02/06 10:31:15;;;;;;;15.33;5.93;;;7.10;1.00;;;;;;5017228;28;20491;-82
2023/02/06 10:34:10;;;;;;;14.03;7.23;;;7.80;1.00;;;;;;5025508;28;20456;-80
2023/02/06 10:36:50;;;;;;;14.90;6.97;;;7.90;1.00;;;;;;5000941;28;20490;-81
2023/02/06 10:39:40;;;;;;;16.07;7.10;;;8.40;99.90;;;;;;5038525;28;20564;-81
2023/02/06 10:42:15;;;;;;;12.63;5.83;;;8.00;99.90;;;;;;5036342;28;20451;-80
2023/02/06 10:44:50;;;;;;;14.70;5.77;;;8.20;99.90;;;;;;5037057;28;20560;-80
2023/02/06 10:47:38;;;;;;;12.90;6.33;;;8.40;99.90;;;;;;5027520;28;21040;-81
2023/02/06 10:50:19;;;;;;;19.57;7.70;;;8.60;1.00;;;;;;5030979;28;20469;-80
2023/02/06 10:52:46;;;;;;;15.27;6.57;;;8.30;1.00;;;;;;5030062;28;20491;-81
2023/02/06 10:55:19;;;;;;;10.77;6.97;;;8.10;99.90;;;;;;5036157;28;20444;-82
2023/02/06 10:57:47;;;;;;;16.60;7.07;;;8.20;99.90;;;;;;5031938;28;20524;-81
2023/02/06 11:00:21;;;;;;;14.93;7.23;;;8.00;99.90;;;;;;5035025;28;20551;-82
2023/02/06 11:02:54;;;;;;;20.53;7.17;;;7.90;99.90;;;;;;5036108;28;20460;-82
2023/02/06 11:05:24;;;;;;;16.27;6.87;;;7.80;99.90;;;;;;5036863;28;20467;-82
2023/02/06 11:07:54;;;;;;;18.97;6.70;;;7.60;99.90;;;;;;5035860;28;20561;-82
2023/02/06 11:10:24;;;;;;;14.70;7.17;;;7.70;99.90;;;;;;5042157;28;21080;-80
2023/02/06 11:12:58;;;;;;;17.03;6.50;;;7.60;99.90;;;;;;5037149;28;20939;-82
2023/02/06 11:15:31;;;;;;;16.03;8.20;;;7.40;1.00;;;;;;5045840;28;20484;-81
2023/02/06 11:18:00;;;;;;;16.83;7.50;;;7.40;1.00;;;;;;5038774;28;20558;-81
2023/02/06 11:20:30;;;;;;;19.03;6.97;;;7.10;1.00;;;;;;5028680;28;20477;-82
2023/02/06 11:23:13;;;;;;;11.70;5.70;;;7.00;1.00;;;;;;5030553;28;20563;-82
2023/02/06 11:25:41;;;;;;;15.13;6.87;;;7.10;1.00;;;;;;5027233;28;20451;-82
2023/02/06 11:28:14;;;;;;;11.83;6.07;;;7.10;1.00;;;;;;5050154;22;20684;-79
2023/02/06 11:30:52;;;;;;;13.70;6.83;;;7.10;1.00;;;;;;5004209;28;20462;-79
2023/02/06 11:33:22;;;;;;;8.30;5.60;;;7.20;1.00;;;;;;5011911;28;20973;-78
2023/02/06 11:35:53;;;;;;;9.63;5.20;;;7.10;1.00;;;;;;5006711;28;20459;-78
2023/02/06 11:38:23;;;;;;;13.40;6.27;;;7.30;1.00;;;;;;5011184;28;20494;-79
2023/02/06 11:41:01;;;;;;;13.23;6.30;;;7.30;1.00;;;;;;5012400;28;20959;-79
2023/02/06 11:43:31;;;;;;;15.80;7.20;;;7.10;1.00;;;;;;5002327;28;20476;-79
2023/02/06 11:46:24;;;;;;;17.77;6.60;;;7.10;1.00;;;;;;5004398;28;20441;-79
2023/02/06 11:49:03;;;;;;;10.10;5.00;;;6.70;1.00;;;;;;4981368;28;20503;-79
2023/02/06 11:51:47;;;;;;;8.20;4.47;;;6.90;1.00;;;;;;4993168;28;20489;-78
2023/02/06 11:54:20;;;;;;;12.33;5.30;;;6.80;1.00;;;;;;4994157;28;21024;-79
2023/02/06 11:56:58;;;;;;;12.90;5.87;;;6.80;1.00;;;;;;4999108;28;20480;-79
2023/02/06 11:59:26;;;;;;;11.07;5.80;;;6.80;1.00;;;;;;4997869;28;20485;-80
2023/02/06 12:01:53;;;;;;;15.90;6.10;;;7.00;1.00;;;;;;4996430;28;20860;-79
2023/02/06 12:04:24;;;;;;;16.40;7.80;;;6.80;1.00;;;;;;5004117;28;20477;-80
2023/02/06 12:06:55;;;;;;;18.07;7.10;;;6.60;1.00;;;;;;4996680;28;20556;-79
2023/02/06 12:09:22;;;;;;;18.07;9.43;;;6.50;1.00;;;;;;4989392;28;20502;-79
2023/02/06 12:11:55;;;;;;;15.77;9.30;;;6.10;1.00;;;;;;4991746;28;20943;-80
2023/02/06 12:14:28;;;;;;;23.30;11.03;;;5.90;12.10;;;;;;5004230;28;20853;-80
2023/02/06 12:16:56;;;;;;;17.30;9.90;;;5.90;15.40;;;;;;4994454;28;20456;-79
2023/02/06 12:19:30;;;;;;;19.90;10.60;;;5.90;38.70;;;;;;4987923;28;21006;-81
2023/02/06 12:22:05;;;;;;;24.47;10.20;;;6.00;25.70;;;;;;5011756;28;20449;-79
2023/02/06 12:24:37;;;;;;;17.20;9.73;;;6.00;27.20;;;;;;5000708;28;20531;-78
2023/02/06 12:27:11;;;;;;;24.13;11.40;;;5.90;32.20;;;;;;4986801;28;20449;-79
2023/02/06 12:29:43;;;;;;;25.10;10.43;;;6.00;44.80;;;;;;4999452;28;20581;-81
2023/02/06 12:32:17;;;;;;;21.33;11.50;;;6.20;34.90;;;;;;4999995;28;20490;-80
2023/02/06 12:34:52;;;;;;;20.53;11.90;;;6.20;15.70;;;;;;4990961;28;20467;-80
2023/02/06 12:37:25;;;;;;;19.70;10.33;;;6.30;30.30;;;;;;5004046;28;20703;-79
2023/02/06 12:39:52;;;;;;;14.37;10.17;;;6.50;42.90;;;;;;5000706;28;20490;-79
2023/02/06 12:42:36;;;;;;;18.87;8.87;;;6.50;8.80;;;;;;5001977;28;20468;-78
2023/02/06 12:45:14;;;;;;;18.70;10.80;;;6.70;1.00;;;;;;4984980;28;20461;-79
2023/02/06 12:47:46;;;;;;;18.37;10.23;;;6.40;1.00;;;;;;4991188;28;20967;-82
2023/02/06 12:50:19;;;;;;;15.67;8.87;;;6.10;1.00;;;;;;4987610;28;20481;-78
2023/02/06 12:52:49;;;;;;;15.30;8.83;;;6.30;12.50;;;;;;4989040;28;20928;-79
2023/02/06 12:55:22;;;;;;;19.90;10.00;;;6.40;8.40;;;;;;4987862;28;20667;-80
2023/02/06 12:57:50;;;;;;;18.53;9.43;;;6.50;12.20;;;;;;4988796;28;20477;-79
2023/02/06 13:00:45;;;;;;;19.57;9.07;;;6.70;12.40;;;;;;4985655;28;20481;-83